Estación Meteorológica Peña el Pijo (Robertgarden) [ 12/10/18 12:34:35 CET ]

Fecha Hora Presion(HPa) Temp (°C) Humedad % Rocio (°C) Viento ( m/s) Direccion Lluvia 1Hora(mm) Lluvia 24H(mm) LLuvia Total(mm)
2018-Oct-23 01:01:50 1015.000 8.4 87 6.4         84.95
2018-Oct-23 02:01:41 1015.200 8.1 88 6.2         84.95
2018-Oct-23 03:01:43 1015.300 7.9 88 6.1         84.95
2018-Oct-23 04:01:42 1015.000 8.3 89 6.6         84.95
2018-Oct-23 05:03:11 1015.100 8.8 89 7.1         84.95
2018-Oct-23 06:10:06 1015.000 8.3 90 6.8         84.95
2018-Oct-23 07:02:09 1015.400 7.6 90 6.1         84.95
2018-Oct-23 08:01:50 1015.200 7.3 90 5.8         84.95
2018-Oct-23 09:01:39 1015.700 7.8 91 6.4         84.95
2018-Oct-23 10:02:02 1016.000 9.1 91 7.7         84.95
2018-Oct-23 11:02:03 1016.700 11.8 92 10.5         84.95
2018-Oct-23 12:01:40 1016.600 14.2 90 12.6         84.95
2018-Oct-23 13:01:47 1016.500 19.4 77 15.3         84.95
2018-Oct-23 14:01:39 1016.100 18.5 69 12.7         84.95
2018-Oct-23 15:01:56 1015.600 22.2 57 13.2         84.95
2018-Oct-23 16:01:30 1015.500 22.2 51 11.6 2.3 N     84.95
2018-Oct-23 17:01:56 1015.600 21.8 51 11.2         84.95
2018-Oct-23 18:01:51 1015.500 20.6 54 10.9         84.95
2018-Oct-23 19:01:55 1015.600 15.9 66 9.6         84.95
2018-Oct-23 20:01:57 1016.100 13.1 73 8.4         84.95
2018-Oct-23 21:01:43 1016.400 11.0 78 7.3         84.95
2018-Oct-23 22:01:41 1016.900 9.4 82 6.4         84.95
2018-Oct-23 23:01:50 1017.400 8.6 84 6.0         84.95

Temperatura Máxima:22°    Temperatura Mínima:
Presión Máxima:1017.400 Hpa    Presión Mínima:1015.000 Hpa


Volver